Time;durP1;ratioP1;P1;durP2;ratioP2;P2;SDS_P1;SDS_P2;PMS_P1;PMS_P2;Temp;Humidity;BMP_temperature;BMP_pressure;BME280_temperature;BME280_humidity;BME280_pressure;Samples;Min_cycle;Max_cycle;Signal;HPM_P1;HPM_P2
2023/04/25 04:32:48;;;;;;;;;9.00;9.00;;;;;10.09;72.36;100825.28;5076561;27;45346;-78
2023/04/25 04:35:14;;;;;;;;;10.25;9.75;;;;;10.18;72.41;100835.66;5076797;28;45557;-78
2023/04/25 04:37:39;;;;;;;;;9.00;8.00;;;;;10.26;72.69;100837.13;5076962;28;45623;-76
2023/04/25 04:40:05;;;;;;;;;12.75;10.25;;;;;10.13;72.34;100832.25;5076629;28;47135;-76
2023/04/25 04:42:31;;;;;;;;;10.25;10.25;;;;;10.29;72.27;100851.28;5077114;28;45284;-76
2023/04/25 04:44:58;;;;;;;;;9.25;8.50;;;;;10.30;72.15;100850.31;5076916;27;45212;-76
2023/04/25 04:47:24;;;;;;;;;11.75;11.50;;;;;10.36;71.86;100855.44;5076710;28;45329;-76
2023/04/25 04:49:49;;;;;;;;;10.75;9.50;;;;;10.39;71.20;100849.91;5080098;27;45952;-76
2023/04/25 04:52:15;;;;;;;;;13.25;13.25;;;;;10.33;71.38;100857.34;5096691;27;45281;-75
2023/04/25 04:54:40;;;;;;;;;12.75;10.00;;;;;10.38;71.63;100861.56;5062986;28;45552;-76
2023/04/25 04:57:05;;;;;;;;;10.50;10.25;;;;;10.36;71.37;100854.56;5076300;28;45444;-77
2023/04/25 04:59:31;;;;;;;;;15.00;13.25;;;;;10.38;71.49;100861.56;5076268;28;46116;-77
2023/04/25 05:01:56;;;;;;;;;13.75;12.75;;;;;10.35;71.25;100860.84;5076734;28;45312;-75
2023/04/25 05:04:21;;;;;;;;;15.50;12.00;;;;;10.35;71.49;100861.72;5072003;27;45354;-77
2023/04/25 05:06:47;;;;;;;;;10.50;10.50;;;;;10.37;71.26;100864.34;5097048;27;45330;-77
2023/04/25 05:09:12;;;;;;;;;13.00;11.25;;;;;10.47;71.26;100877.25;5096495;27;45286;-74
2023/04/25 05:11:38;;;;;;;;;12.75;11.00;;;;;10.55;71.13;100884.97;5097139;27;45333;-77
2023/04/25 05:14:03;;;;;;;;;11.50;10.00;;;;;10.46;70.57;100877.34;5096769;27;45354;-77
2023/04/25 05:16:28;;;;;;;;;14.00;12.50;;;;;10.48;71.39;100878.13;5096787;27;45293;-77
2023/04/25 05:18:54;;;;;;;;;10.25;10.25;;;;;10.58;70.54;100898.25;5097009;27;45414;-78
2023/04/25 05:21:19;;;;;;;;;14.00;10.75;;;;;10.59;70.29;100905.34;5096658;27;49267;-74
2023/04/25 05:23:44;;;;;;;;;11.00;11.00;;;;;10.53;70.48;100902.94;5078277;27;45581;-77
2023/04/25 05:26:13;;;;;;;;;14.00;10.00;;;;;10.65;71.20;100910.44;5096761;27;45627;-72
2023/04/25 05:28:40;;;;;;;;;10.00;10.00;;;;;10.63;70.67;100897.09;5096311;27;45370;-78
2023/04/25 05:31:06;;;;;;;;;13.00;13.00;;;;;10.78;70.48;100913.47;5096572;27;45523;-80
2023/04/25 05:33:31;;;;;;;;;15.75;15.00;;;;;10.77;70.15;100925.13;5096261;27;45421;-80
2023/04/25 05:35:56;;;;;;;;;10.00;10.00;;;;;10.71;70.25;100925.41;5096679;27;45539;-74
2023/04/25 05:38:22;;;;;;;;;13.00;13.00;;;;;10.70;70.55;100934.38;5096507;27;46136;-72
2023/04/25 05:40:47;;;;;;;;;14.00;14.00;;;;;10.56;71.01;100922.44;5096513;27;45382;-78
2023/04/25 05:43:12;;;;;;;;;17.25;12.50;;;;;10.66;70.62;100948.84;5096180;27;45452;-73
2023/04/25 05:45:38;;;;;;;;;13.25;13.25;;;;;10.66;70.71;100948.84;5095904;27;53478;-74
2023/04/25 05:48:03;;;;;;;;;14.50;12.75;;;;;10.73;70.58;100953.00;5095323;27;45535;-76
2023/04/25 05:50:28;;;;;;;;;13.25;13.25;;;;;10.62;70.71;100948.13;5076212;27;45396;-75
2023/04/25 05:52:54;;;;;;;;;15.75;12.50;;;;;10.52;71.15;100944.97;5095773;27;45377;-76
2023/04/25 05:55:19;;;;;;;;;12.50;10.50;;;;;10.60;70.88;100964.28;5096005;27;45503;-75
2023/04/25 05:57:45;;;;;;;;;15.00;14.50;;;;;10.59;71.14;100967.00;5096005;27;45878;-74
2023/04/25 06:00:12;;;;;;;;;18.50;16.00;;;;;10.44;71.39;100957.81;5095656;27;45419;-74
2023/04/25 06:02:38;;;;;;;;;16.50;13.75;;;;;10.47;71.33;100973.75;5095712;27;45373;-77
2023/04/25 06:05:03;;;;;;;;;12.75;10.25;;;;;10.49;71.70;100974.56;5095806;27;45687;-76
2023/04/25 06:07:34;;;;;;;;;15.50;15.50;;;;;10.56;71.52;100986.75;5077013;27;47139;-75
2023/04/25 06:10:00;;;;;;;;;15.25;12.25;;;;;10.61;71.80;100983.91;5073878;28;45419;-76
2023/04/25 06:12:26;;;;;;;;;15.75;14.75;;;;;10.60;71.63;100983.03;5091302;27;45373;-73
2023/04/25 06:14:51;;;;;;;;;14.50;14.50;;;;;10.55;71.69;100984.16;5096019;27;45345;-74
2023/04/25 06:17:17;;;;;;;;;15.50;14.75;;;;;10.33;71.56;100952.03;5095592;27;46108;-76
2023/04/25 06:19:42;;;;;;;;;14.50;13.25;;;;;10.50;71.51;100972.75;5095648;27;45277;-75
2023/04/25 06:22:07;;;;;;;;;16.00;14.25;;;;;10.50;71.39;100970.06;5095728;27;45348;-74
2023/04/25 06:24:34;;;;;;;;;16.75;11.75;;;;;10.63;71.52;100982.03;5095695;27;45496;-74
2023/04/25 06:27:00;;;;;;;;;16.25;13.00;;;;;10.59;71.68;100975.06;5060057;27;48439;-74
2023/04/25 06:29:26;;;;;;;;;19.50;16.75;;;;;10.72;71.44;100978.94;5092407;27;45432;-75
2023/04/25 06:31:51;;;;;;;;;19.00;16.00;;;;;10.78;71.03;100977.81;5084993;27;45672;-76
2023/04/25 06:34:17;;;;;;;;;15.75;12.50;;;;;10.51;70.89;100928.94;5081900;27;46422;-76
2023/04/25 06:36:44;;;;;;;;;13.50;13.00;;;;;10.81;70.66;100981.22;5081891;27;46157;-74
2023/04/25 06:39:09;;;;;;;;;14.50;14.00;;;;;10.83;71.32;100976.69;5082503;27;45887;-75
2023/04/25 06:41:35;;;;;;;;;9.50;9.50;;;;;10.85;70.50;100982.84;5078190;27;45485;-75
2023/04/25 06:44:00;;;;;;;;;18.50;15.00;;;;;10.89;70.86;100976.41;5061093;27;45492;-75
2023/04/25 06:46:26;;;;;;;;;16.50;14.50;;;;;11.06;70.74;100991.75;5083565;27;46218;-74
2023/04/25 06:48:51;;;;;;;;;12.25;11.00;;;;;11.13;70.15;100984.34;5083684;27;45494;-76
2023/04/25 06:51:17;;;;;;;;;9.50;9.50;;;;;11.24;69.93;100988.28;5076284;27;45636;-75
2023/04/25 06:53:43;;;;;;;;;11.25;9.50;;;;;11.33;69.43;100990.53;5072392;28;45499;-74
2023/04/25 06:56:08;;;;;;;;;9.50;9.50;;;;;11.50;68.62;101003.19;5068227;28;45962;-74
2023/04/25 06:58:33;;;;;;;;;14.00;10.25;;;;;11.57;68.15;101001.97;5069717;28;45709;-74
2023/04/25 07:00:59;;;;;;;;;8.50;4.00;;;;;11.62;67.85;101010.72;5072589;28;45554;-76
2023/04/25 07:03:24;;;;;;;;;8.75;8.75;;;;;11.66;66.60;100998.00;5072669;28;45331;-74
2023/04/25 07:05:50;;;;;;;;;9.00;8.00;;;;;11.74;66.14;101012.84;5072172;28;45959;-75
2023/04/25 07:08:16;;;;;;;;;9.00;9.00;;;;;11.87;65.50;101023.03;5071012;28;45233;-74
2023/04/25 07:10:42;;;;;;;;;9.00;9.00;;;;;11.89;65.61;101023.84;5053302;28;45406;-74
2023/04/25 07:13:07;;;;;;;;;10.25;10.25;;;;;11.80;65.15;101011.72;5071020;28;45285;-75
2023/04/25 07:15:33;;;;;;;;;10.00;9.50;;;;;11.85;65.40;101020.41;5060209;28;45319;-73
2023/04/25 07:17:59;;;;;;;;;9.50;9.50;;;;;11.94;65.02;101029.84;5054369;28;45305;-75
2023/04/25 07:20:24;;;;;;;;;10.25;10.00;;;;;11.97;65.44;101022.53;5055033;28;45332;-75
2023/04/25 07:22:50;;;;;;;;;12.50;12.25;;;;;11.95;64.99;101020.84;5055531;28;45249;-73
2023/04/25 07:25:16;;;;;;;;;15.25;14.00;;;;;11.98;64.91;101034.16;5053806;28;46845;-74
2023/04/25 07:27:41;;;;;;;;;8.00;8.00;;;;;11.99;64.11;101044.81;5061352;28;45534;-74
2023/04/25 07:30:07;;;;;;;;;13.25;13.25;;;;;11.93;64.41;101038.84;5074106;28;45312;-75
2023/04/25 07:32:32;;;;;;;;;16.25;14.75;;;;;11.98;64.53;101051.16;5091479;27;45447;-74
2023/04/25 07:34:58;;;;;;;;;15.50;15.00;;;;;11.92;64.61;101047.84;5094493;27;45227;-71
2023/04/25 07:37:23;;;;;;;;;17.25;17.25;;;;;11.94;64.36;101052.22;5094679;27;45352;-74
2023/04/25 07:39:48;;;;;;;;;15.25;14.00;;;;;11.92;64.49;101059.47;5095009;27;45549;-75
2023/04/25 07:42:14;;;;;;;;;17.25;16.00;;;;;11.89;64.67;101064.13;5094382;27;52059;-73
2023/04/25 07:44:40;;;;;;;;;19.50;17.25;;;;;11.84;64.51;101069.72;5062935;28;47104;-74
2023/04/25 07:47:09;;;;;;;;;17.50;17.50;;;;;11.79;64.12;101079.81;5094276;27;45334;-73
2023/04/25 07:49:35;;;;;;;;;22.00;20.25;;;;;11.68;64.04;101065.94;5094354;27;45275;-73
2023/04/25 07:52:01;;;;;;;;;24.50;22.00;;;;;11.68;63.16;101082.06;5089461;27;45251;-73
2023/04/25 07:54:27;;;;;;;;;20.25;18.50;;;;;11.62;63.10;101076.97;5079086;27;45484;-74
2023/04/25 07:56:52;;;;;;;;;22.50;18.50;;;;;11.62;62.98;101085.91;5072588;28;45268;-73
2023/04/25 07:59:18;;;;;;;;;19.75;16.75;;;;;11.59;62.56;101077.09;5074073;28;45419;-73
2023/04/25 08:01:43;;;;;;;;;17.00;15.50;;;;;11.67;62.23;101093.75;5074291;28;45224;-74
2023/04/25 08:04:08;;;;;;;;;21.50;18.50;;;;;11.65;62.06;101091.13;5073558;28;45774;-72
2023/04/25 08:06:36;;;;;;;;;21.00;17.75;;;;;11.73;62.06;101099.72;5073939;28;45354;-74
2023/04/25 08:09:02;;;;;;;;;16.50;16.50;;;;;11.72;60.97;101111.41;5069132;27;45508;-74
2023/04/25 08:11:28;;;;;;;;;16.00;14.00;;;;;11.77;61.12;101118.41;5075566;28;46066;-73
2023/04/25 08:13:53;;;;;;;;;23.25;18.25;;;;;11.79;60.46;101128.16;5077238;28;45362;-72
2023/04/25 08:16:19;;;;;;;;;20.00;15.75;;;;;11.81;60.88;101125.41;5077542;28;45441;-74
2023/04/25 08:18:44;;;;;;;;;21.25;15.50;;;;;11.83;61.34;101134.25;5076978;28;45454;-73
2023/04/25 08:21:11;;;;;;;;;16.75;15.75;;;;;11.84;60.90;101125.25;5062652;28;45573;-72
2023/04/25 08:23:37;;;;;;;;;14.75;14.75;;;;;11.81;61.16;101123.59;5077235;28;45439;-74
2023/04/25 08:26:02;;;;;;;;;16.75;15.75;;;;;11.88;60.67;101134.94;5077432;28;45221;-73
2023/04/25 08:28:28;;;;;;;;;22.25;15.50;;;;;11.96;61.21;101140.81;5077261;28;45208;-73
2023/04/25 08:30:53;;;;;;;;;15.75;14.50;;;;;11.96;61.42;101141.69;5077070;27;45552;-73
2023/04/25 08:33:19;;;;;;;;;17.00;15.00;;;;;12.04;61.49;101146.72;5077151;28;46303;-72
2023/04/25 08:35:45;;;;;;;;;12.50;12.50;;;;;11.89;61.17;101124.13;5077621;28;45418;-74
2023/04/25 08:38:10;;;;;;;;;13.75;12.50;;;;;11.91;61.42;101127.59;5077554;28;45488;-75
2023/04/25 08:40:38;;;;;;;;;12.75;12.75;;;;;12.04;61.50;101147.59;5075773;28;46092;-74
2023/04/25 08:43:09;;;;;;;;;14.25;12.25;;;;;12.04;61.43;101157.47;5076695;28;46216;-73
2023/04/25 08:45:35;;;;;;;;;18.25;14.00;;;;;12.03;60.91;101156.59;5063292;28;45495;-74
2023/04/25 08:48:01;;;;;;;;;17.50;15.00;;;;;12.01;60.87;101160.28;5076611;28;45383;-75
2023/04/25 08:50:26;;;;;;;;;16.75;13.00;;;;;11.98;60.83;101163.13;5085460;27;45316;-75
2023/04/25 08:52:54;;;;;;;;;15.00;15.00;;;;;11.96;61.33;101168.56;5096202;27;46340;-73
2023/04/25 08:55:21;;;;;;;;;16.25;15.25;;;;;11.94;61.19;101170.44;5076875;28;45333;-74
2023/04/25 08:57:47;;;;;;;;;17.50;12.75;;;;;11.98;61.14;101174.75;5076841;28;45371;-75
2023/04/25 09:00:13;;;;;;;;;11.25;11.25;;;;;11.95;60.74;101165.94;5076586;28;45161;-74
2023/04/25 09:02:40;;;;;;;;;18.50;16.00;;;;;11.96;60.58;101184.69;5076316;28;45957;-75
2023/04/25 09:05:06;;;;;;;;;15.50;13.50;;;;;12.00;60.68;101194.34;5076356;28;45424;-73
2023/04/25 09:07:32;;;;;;;;;18.25;14.50;;;;;11.99;60.99;101178.31;5076549;28;45392;-75
2023/04/25 09:10:01;;;;;;;;;12.75;10.25;;;;;12.05;60.61;101181.59;5076492;28;45397;-73
2023/04/25 09:12:29;;;;;;;;;12.25;11.50;;;;;12.14;59.91;101185.69;5085869;27;45562;-72
2023/04/25 09:15:09;;;;;;;;;14.00;12.75;;;;;12.10;59.70;101179.56;5083579;27;45434;-73
2023/04/25 09:17:39;;;;;;;;;20.50;15.50;;;;;12.31;58.69;101201.03;5096500;27;45458;-74
2023/04/25 09:20:10;;;;;;;;;8.00;8.00;;;;;12.38;58.51;101205.19;5092240;27;45474;-71
2023/04/25 09:22:37;;;;;;;;;12.50;11.50;;;;;12.42;58.07;101212.16;5087831;27;45939;-73
2023/04/25 09:25:16;;;;;;;;;17.00;11.00;;;;;12.43;57.97;101220.16;5068373;27;45371;-73
2023/04/25 09:27:52;;;;;;;;;16.00;14.50;;;;;12.40;57.97;101217.63;5082082;27;45374;-74
2023/04/25 09:30:18;;;;;;;;;14.50;13.25;;;;;12.16;57.67;101188.31;5068832;27;46657;-76
2023/04/25 09:32:45;;;;;;;;;14.50;14.50;;;;;12.39;58.95;101233.84;5091892;27;45979;-74
2023/04/25 09:35:11;;;;;;;;;18.75;12.00;;;;;12.41;58.97;101234.63;5086256;27;45537;-73
2023/04/25 09:37:37;;;;;;;;;11.25;11.25;;;;;12.42;58.73;101239.03;5079775;27;45665;-74
2023/04/25 09:40:07;;;;;;;;;14.25;10.75;;;;;12.43;58.08;101238.97;5059198;27;46067;-73
2023/04/25 09:42:34;;;;;;;;;12.75;10.75;;;;;12.41;57.68;101230.13;5096254;27;46422;-74
2023/04/25 09:45:03;;;;;;;;;11.25;11.25;;;;;12.62;57.16;101238.13;5072482;27;46213;-73
2023/04/25 09:47:29;;;;;;;;;10.00;9.25;;;;;12.72;56.82;101242.16;5087238;27;46142;-73
2023/04/25 09:49:55;;;;;;;;;8.50;8.50;;;;;12.76;56.61;101233.00;5093829;27;45983;-74
2023/04/25 09:52:23;;;;;;;;;15.25;12.00;;;;;12.75;56.34;101244.72;5094485;27;45560;-74
2023/04/25 09:54:49;;;;;;;;;17.50;11.75;;;;;12.75;56.96;101250.97;5084730;27;45428;-73
2023/04/25 09:57:23;;;;;;;;;8.75;8.75;;;;;12.69;56.90;101248.53;5077475;27;45542;-73
2023/04/25 09:59:54;;;;;;;;;6.00;5.00;;;;;12.63;57.30;101248.84;5091504;27;46412;-74
2023/04/25 10:02:23;;;;;;;;;10.00;6.75;;;;;12.67;57.44;101258.53;5085170;27;47026;-74
2023/04/25 10:04:52;;;;;;;;;10.00;10.00;;;;;12.74;57.38;101257.28;5084734;27;45293;-73
2023/04/25 10:07:19;;;;;;;;;9.00;9.00;;;;;12.78;56.92;101261.56;5074201;27;45454;-74
2023/04/25 10:09:48;;;;;;;;;11.25;9.50;;;;;12.79;57.05;101249.88;5081962;27;46192;-73
2023/04/25 10:12:13;;;;;;;;;10.50;9.00;;;;;12.89;57.05;101255.69;5087068;27;45464;-74
2023/04/25 10:14:39;;;;;;;;;14.00;8.50;;;;;13.06;56.59;101266.53;5077815;27;45839;-76
2023/04/25 10:17:05;;;;;;;;;12.75;9.00;;;;;13.19;55.68;101261.44;5085759;27;45908;-77
2023/04/25 10:19:32;;;;;;;;;11.25;10.00;;;;;13.19;54.91;101254.25;5088887;27;45792;-74
2023/04/25 10:22:09;;;;;;;;;13.00;10.75;;;;;13.34;55.28;101259.84;5090673;27;45589;-72
2023/04/25 10:24:37;;;;;;;;;12.75;8.75;;;;;13.35;54.36;101248.13;5069178;28;45548;-73
2023/04/25 10:27:03;;;;;;;;;9.00;9.00;;;;;13.46;53.42;101262.78;5090843;27;45424;-73
2023/04/25 10:29:29;;;;;;;;;9.00;8.50;;;;;13.50;53.78;101255.44;5095757;27;45556;-74
2023/04/25 10:31:55;;;;;;;;;8.50;8.25;;;;;13.52;53.61;101267.03;5092873;27;46082;-75
2023/04/25 10:34:37;;;;;;;;;11.75;8.75;;;;;13.43;53.02;101252.19;5090635;27;45364;-74
2023/04/25 10:37:03;;;;;;;;;13.50;11.00;;;;;13.45;53.39;101263.72;5075508;27;45840;-76
2023/04/25 10:39:28;;;;;;;;;10.00;10.00;;;;;13.46;54.15;101259.22;5074668;27;45409;-74
2023/04/25 10:41:58;;;;;;;;;9.50;9.50;;;;;13.49;53.82;101257.25;5091187;27;46339;-75
2023/04/25 10:44:30;;;;;;;;;7.00;7.00;;;;;13.46;54.02;101243.94;5092049;27;45362;-73
2023/04/25 10:46:57;;;;;;;;;7.75;7.75;;;;;13.60;52.94;101263.00;5077757;27;45568;-74
2023/04/25 10:49:33;;;;;;;;;7.00;7.00;;;;;13.66;52.53;101261.81;5092882;27;45502;-74
2023/04/25 10:52:33;;;;;;;;;11.25;9.25;;;;;13.53;53.03;101237.28;5093141;27;46304;-74
2023/04/25 10:55:00;;;;;;;;;8.00;6.75;;;;;13.65;51.66;101260.06;5025049;28;45437;-74
2023/04/25 10:57:29;;;;;;;;;13.00;10.00;;;;;13.59;52.52;101255.84;5074144;27;45280;-72
2023/04/25 10:59:59;;;;;;;;;12.25;10.00;;;;;13.67;52.55;101271.63;5091337;27;45344;-74
2023/04/25 11:02:28;;;;;;;;;7.50;7.50;;;;;13.64;51.86;101275.34;5072901;27;46306;-76
2023/04/25 11:04:54;;;;;;;;;10.00;8.00;;;;;13.52;51.85;101258.94;5091536;27;45232;-76
2023/04/25 11:07:49;;;;;;;;;8.00;8.00;;;;;13.60;52.21;101280.97;5092202;27;45290;-73
2023/04/25 11:10:15;;;;;;;;;7.25;7.25;;;;;13.54;52.28;101273.19;5091113;27;45328;-74
2023/04/25 11:12:40;;;;;;;;;6.50;5.50;;;;;13.53;51.37;101282.22;5090562;27;46029;-74
2023/04/25 11:15:07;;;;;;;;;5.50;5.50;;;;;13.52;51.13;101281.38;5093036;27;45353;-73
2023/04/25 11:17:33;;;;;;;;;9.25;6.75;;;;;13.54;51.16;101282.13;5092108;27;45578;-74
2023/04/25 11:19:58;;;;;;;;;7.00;6.00;;;;;13.56;51.26;101282.94;5073983;27;45606;-73
2023/04/25 11:22:24;;;;;;;;;7.50;6.50;;;;;13.56;50.78;101274.84;5089921;27;45975;-75
2023/04/25 11:24:50;;;;;;;;;5.00;3.50;;;;;13.63;51.21;101278.13;5090813;27;45499;-74
2023/04/25 11:27:16;;;;;;;;;9.50;9.00;;;;;13.64;50.68;101274.47;5090878;27;45556;-76
2023/04/25 11:29:41;;;;;;;;;14.00;7.75;;;;;13.78;50.24;101273.78;5092421;27;45508;-77
2023/04/25 11:32:06;;;;;;;;;5.00;5.00;;;;;13.85;50.00;101281.50;5090089;27;46399;-75
2023/04/25 11:34:33;;;;;;;;;4.75;4.75;;;;;13.89;49.87;101285.75;5084086;27;45390;-76
2023/04/25 11:37:01;;;;;;;;;4.00;4.00;;;;;13.91;48.76;101285.69;5074654;28;45294;-74
2023/04/25 11:39:28;;;;;;;;;4.00;4.00;;;;;13.96;49.35;101283.59;5065304;27;45398;-77
2023/04/25 11:41:54;;;;;;;;;4.75;4.75;;;;;14.03;49.22;101280.53;5078153;27;46225;-75
2023/04/25 11:44:21;;;;;;;;;7.00;7.00;;;;;13.97;49.84;101267.38;5062605;28;45426;-77
2023/04/25 11:46:47;;;;;;;;;6.75;6.00;;;;;14.08;49.67;101274.91;5076763;28;45415;-76
2023/04/25 11:49:13;;;;;;;;;7.00;6.25;;;;;14.08;49.09;101280.28;5077609;28;45339;-76
2023/04/25 11:51:43;;;;;;;;;7.25;6.00;;;;;14.09;49.86;101273.97;5096348;27;45288;-77
2023/04/25 11:54:09;;;;;;;;;7.00;5.50;;;;;14.09;49.69;101287.44;5086825;27;45418;-76
2023/04/25 11:56:35;;;;;;;;;9.00;7.00;;;;;14.09;49.50;101283.88;5077399;28;45313;-75
2023/04/25 11:59:02;;;;;;;;;7.00;7.00;;;;;14.14;49.19;101282.66;5077760;28;45288;-76
2023/04/25 12:01:36;;;;;;;;;7.50;6.00;;;;;14.10;48.57;101289.19;5077392;27;46459;-76
2023/04/25 12:04:21;;;;;;;;;6.00;4.50;;;;;14.12;48.41;101271.09;5077443;28;45366;-75
2023/04/25 12:06:48;;;;;;;;;4.25;4.25;;;;;14.18;47.94;101283.41;5077509;28;45362;-76
2023/04/25 12:09:18;;;;;;;;;5.75;4.75;;;;;14.21;47.99;101291.31;5077322;28;45216;-75
2023/04/25 12:11:48;;;;;;;;;7.75;5.00;;;;;14.26;48.22;101284.72;5077362;28;45948;-76
2023/04/25 12:14:28;;;;;;;;;8.75;6.25;;;;;14.27;48.60;101280.22;5077536;28;45363;-75
2023/04/25 12:16:58;;;;;;;;;8.75;8.75;;;;;14.19;48.58;101274.34;5076116;28;45355;-76
2023/04/25 12:19:24;;;;;;;;;8.25;7.50;;;;;14.22;48.77;101280.44;5077025;27;45600;-75
2023/04/25 12:21:50;;;;;;;;;5.75;5.50;;;;;14.26;48.97;101290.13;5077091;28;45402;-75
2023/04/25 12:24:25;;;;;;;;;10.25;7.00;;;;;14.20;49.17;101290.47;5082835;27;45430;-75
2023/04/25 12:27:00;;;;;;;;;6.50;6.25;;;;;14.12;49.58;101291.81;5084547;27;45351;-75
2023/04/25 12:29:27;;;;;;;;;8.00;8.00;;;;;14.12;49.48;101300.75;5077405;28;45355;-76
2023/04/25 12:31:54;;;;;;;;;10.00;5.50;;;;;14.09;49.32;101297.34;5076852;27;46656;-76
2023/04/25 12:34:20;;;;;;;;;11.50;9.25;;;;;14.09;50.30;101305.44;5077120;28;45356;-76
2023/04/25 12:36:46;;;;;;;;;6.50;6.50;;;;;14.02;49.54;101294.97;5077523;28;45258;-78
2023/04/25 12:39:23;;;;;;;;;7.00;7.00;;;;;14.02;49.87;101305.75;5086266;27;45353;-75
2023/04/25 12:41:53;;;;;;;;;7.25;7.25;;;;;13.99;50.28;101291.56;5076807;28;46122;-76
2023/04/25 12:44:19;;;;;;;;;7.00;7.00;;;;;14.07;49.74;101305.50;5065174;28;45661;-78
2023/04/25 12:46:45;;;;;;;;;8.25;8.25;;;;;14.11;50.16;101307.13;5080204;27;45308;-75
2023/04/25 12:49:11;;;;;;;;;13.00;9.00;;;;;14.11;49.61;101300.84;5068330;28;46626;-76
2023/04/25 12:51:37;;;;;;;;;8.00;8.00;;;;;14.15;50.12;101294.31;5095097;27;46236;-77
2023/04/25 12:54:04;;;;;;;;;8.75;8.25;;;;;14.26;49.67;101297.34;5086900;27;45483;-76
2023/04/25 12:56:30;;;;;;;;;8.50;6.00;;;;;14.27;50.00;101289.19;5076643;27;45228;-77
2023/04/25 12:58:56;;;;;;;;;6.00;6.00;;;;;14.43;48.97;101312.69;5076467;28;45465;-77
2023/04/25 13:01:21;;;;;;;;;9.25;7.25;;;;;14.46;48.14;101305.28;5076718;28;46600;-76
2023/04/25 13:03:48;;;;;;;;;7.75;6.50;;;;;14.53;47.17;101300.44;5076488;28;45432;-78
2023/04/25 13:06:15;;;;;;;;;6.25;6.25;;;;;14.61;47.82;101303.59;5076589;28;45334;-75
2023/04/25 13:08:41;;;;;;;;;7.75;6.75;;;;;14.83;47.91;101314.09;5076479;28;45231;-76
2023/04/25 13:11:07;;;;;;;;;6.50;5.50;;;;;14.99;48.14;101315.00;5076240;28;46192;-75
2023/04/25 13:13:34;;;;;;;;;11.75;7.25;;;;;15.05;47.38;101303.88;5075818;28;45512;-75
2023/04/25 13:15:59;;;;;;;;;3.00;2.00;;;;;15.04;47.08;101299.44;5076436;28;45362;-76
2023/04/25 13:18:26;;;;;;;;;9.75;9.75;;;;;15.14;46.38;101306.91;5076129;28;45593;-77
2023/04/25 13:20:52;;;;;;;;;11.50;8.00;;;;;15.09;45.01;101300.03;5075915;28;45413;-75
2023/04/25 13:23:18;;;;;;;;;9.50;6.50;;;;;15.00;45.39;101301.44;5075500;28;45322;-75
2023/04/25 13:25:43;;;;;;;;;9.50;7.00;;;;;14.98;46.09;101315.97;5057684;28;45423;-75
2023/04/25 13:28:09;;;;;;;;;7.00;7.00;;;;;14.86;46.52;101304.03;5075616;27;45229;-76
2023/04/25 13:30:34;;;;;;;;;8.00;7.00;;;;;14.77;45.99;101307.22;5075557;28;45512;-77
2023/04/25 13:33:02;;;;;;;;;7.25;6.50;;;;;14.77;46.18;101321.59;5076114;28;45324;-77
2023/04/25 13:35:29;;;;;;;;;8.50;6.50;;;;;14.68;46.12;101310.41;5072041;28;45573;-77
2023/04/25 13:37:54;;;;;;;;;6.25;6.25;;;;;14.56;46.09;101306.53;5076131;28;45304;-75
2023/04/25 13:40:20;;;;;;;;;8.75;7.00;;;;;14.53;46.65;101312.13;5093802;27;46038;-75
2023/04/25 13:42:45;;;;;;;;;6.50;6.25;;;;;14.54;47.17;101311.16;5096588;27;45366;-78
2023/04/25 13:45:11;;;;;;;;;8.00;7.00;;;;;14.44;46.38;101311.72;5078880;27;45481;-76
2023/04/25 13:47:36;;;;;;;;;5.00;5.00;;;;;14.46;45.74;101320.63;5076000;28;45388;-76
2023/04/25 13:50:03;;;;;;;;;5.00;5.00;;;;;14.43;46.36;101321.66;5081194;27;45502;-76
2023/04/25 13:52:28;;;;;;;;;8.75;5.25;;;;;14.25;45.35;101304.56;5095747;27;45452;-76
2023/04/25 13:54:54;;;;;;;;;4.25;4.25;;;;;14.28;45.82;101311.63;5078528;27;45447;-76
2023/04/25 13:57:20;;;;;;;;;6.75;5.75;;;;;14.27;46.62;101316.16;5065096;28;45517;-78
2023/04/25 13:59:46;;;;;;;;;5.00;5.00;;;;;14.30;46.64;101309.69;5075484;28;45371;-75
2023/04/25 14:02:12;;;;;;;;;5.25;4.75;;;;;14.34;46.77;101314.88;5075869;28;45248;-75
2023/04/25 14:04:37;;;;;;;;;6.00;5.00;;;;;14.34;47.94;101309.47;5075582;28;45548;-76
2023/04/25 14:07:03;;;;;;;;;6.75;5.00;;;;;14.45;47.64;101326.97;5075527;28;45304;-76
2023/04/25 14:09:29;;;;;;;;;9.75;8.25;;;;;14.42;46.15;101319.03;5074765;28;45879;-76
2023/04/25 14:11:55;;;;;;;;;10.50;8.25;;;;;14.48;46.68;101327.66;5075707;27;45200;-77
2023/04/25 14:14:21;;;;;;;;;7.50;6.25;;;;;14.49;46.29;101324.00;5075477;28;45312;-77
2023/04/25 14:16:48;;;;;;;;;6.25;6.00;;;;;14.48;46.54;101316.88;5075737;28;45471;-76
2023/04/25 14:19:15;;;;;;;;;8.00;6.00;;;;;14.59;46.72;101333.38;5075097;28;46406;-77
2023/04/25 14:21:40;;;;;;;;;7.00;7.00;;;;;14.57;46.26;101321.78;5075575;28;45433;-76
2023/04/25 14:24:06;;;;;;;;;6.50;6.50;;;;;14.65;46.49;101329.47;5075507;28;45228;-76
2023/04/25 14:26:33;;;;;;;;;9.50;5.00;;;;;14.62;46.67;101318.84;5075502;28;45216;-75
2023/04/25 14:28:58;;;;;;;;;4.25;4.25;;;;;14.58;46.43;101309.16;5075176;28;45375;-76
2023/04/25 14:31:23;;;;;;;;;7.75;6.75;;;;;14.68;46.05;101316.69;5075278;28;45288;-76
2023/04/25 14:33:48;;;;;;;;;3.50;3.50;;;;;14.59;46.15;101303.69;5075074;28;45520;-79
2023/04/25 14:36:14;;;;;;;;;7.00;5.25;;;;;14.69;45.78;101325.66;5075020;28;50631;-78
2023/04/25 14:38:39;;;;;;;;;5.25;5.25;;;;;14.46;45.42;101282.84;5075223;27;45386;-77
2023/04/25 14:41:05;;;;;;;;;6.00;6.00;;;;;14.61;45.19;101314.41;5075308;28;45241;-75
2023/04/25 14:43:30;;;;;;;;;5.00;5.00;;;;;14.58;45.09;101328.03;5075206;28;45748;-76
2023/04/25 14:45:56;;;;;;;;;6.00;4.50;;;;;14.48;44.97;101313.28;5075153;28;45648;-76
2023/04/25 14:48:21;;;;;;;;;5.25;4.00;;;;;14.45;44.81;101318.88;5073923;27;46162;-77
2023/04/25 14:50:47;;;;;;;;;4.00;2.75;;;;;14.52;44.37;101334.66;5095491;27;45514;-76
2023/04/25 14:53:12;;;;;;;;;4.00;4.00;;;;;14.49;44.45;101334.81;5078678;27;45487;-76
2023/04/25 14:55:38;;;;;;;;;10.00;7.75;;;;;14.36;44.45;101314.81;5075121;28;45500;-77
2023/04/25 14:58:03;;;;;;;;;4.75;4.75;;;;;14.54;43.85;101335.44;5074858;27;46281;-76
2023/04/25 15:00:30;;;;;;;;;5.75;5.00;;;;;14.50;43.80;101323.06;5075019;28;45292;-77
2023/04/25 15:02:56;;;;;;;;;6.75;5.00;;;;;14.59;43.22;101327.09;5073351;27;45517;-75
2023/04/25 15:05:21;;;;;;;;;5.25;5.25;;;;;14.60;43.33;101337.81;5085142;27;45993;-76
2023/04/25 15:07:47;;;;;;;;;5.00;4.75;;;;;14.61;43.46;101328.78;5074630;28;46586;-81
2023/04/25 15:10:16;;;;;;;;;6.50;5.25;;;;;14.64;43.90;101325.88;5074864;28;45440;-75
2023/04/25 15:12:45;;;;;;;;;4.00;4.00;;;;;14.69;43.83;101328.34;5074940;28;45434;-75
2023/04/25 15:15:11;;;;;;;;;4.75;4.75;;;;;14.77;43.40;101332.38;5074795;28;45356;-76
2023/04/25 15:17:41;;;;;;;;;7.50;4.25;;;;;14.74;43.42;101308.25;5074547;28;47186;-78
2023/04/25 15:20:09;;;;;;;;;3.75;3.75;;;;;14.93;42.57;101324.31;5073757;28;45299;-78
2023/04/25 15:22:36;;;;;;;;;4.50;4.00;;;;;15.07;42.54;101334.34;5074514;28;45301;-74
2023/04/25 15:25:01;;;;;;;;;6.50;3.75;;;;;15.18;42.89;101325.66;5074624;28;47080;-73
2023/04/25 15:27:27;;;;;;;;;6.75;5.00;;;;;15.31;42.98;101321.34;5074082;27;47516;-75
2023/04/25 15:29:53;;;;;;;;;4.50;4.50;;;;;15.50;42.76;101332.81;5083866;27;45236;-75
2023/04/25 15:32:18;;;;;;;;;7.25;5.50;;;;;15.63;42.34;101319.53;5074436;28;45364;-75
2023/04/25 15:34:44;;;;;;;;;6.00;6.00;;;;;15.85;42.01;101315.47;5074200;28;45165;-78
2023/04/25 15:37:09;;;;;;;;;6.75;6.75;;;;;16.39;40.76;101314.97;5074204;28;45453;-72
2023/04/25 15:39:34;;;;;;;;;3.75;3.75;;;;;16.78;39.30;101304.41;5074043;28;45315;-73
2023/04/25 15:42:01;;;;;;;;;6.00;6.00;;;;;17.10;38.39;101309.66;5074431;28;45317;-74
2023/04/25 15:44:26;;;;;;;;;9.00;6.75;;;;;17.18;38.37;101313.56;5073889;28;46162;-73
2023/04/25 15:46:51;;;;;;;;;5.25;5.25;;;;;17.11;37.72;101309.53;5074144;28;46186;-75